Time;durP1;ratioP1;P1;durP2;ratioP2;P2;SDS_P1;SDS_P2;PMS_P1;PMS_P2;Temp;Humidity;BMP_temperature;BMP_pressure;BME280_temperature;BME280_humidity;BME280_pressure;Samples;Min_cycle;Max_cycle;Signal;HPM_P1;HPM_P2
2022/04/28 00:00:50;;;;;;;10.07;8.95;;;;;;;8.98;66.22;99751.91;2620927;54;20030;-64
2022/04/28 00:03:26;;;;;;;10.45;8.85;;;;;;;8.93;66.70;99755.84;2619536;54;20031;-65
2022/04/28 00:05:57;;;;;;;11.52;10.38;;;;;;;8.94;66.72;99756.72;2623270;54;20035;-64
2022/04/28 00:08:27;;;;;;;10.88;9.75;;;;;;;8.86;67.03;99757.50;2622851;54;20073;-63
2022/04/28 00:10:57;;;;;;;10.32;9.32;;;;;;;8.84;67.06;99756.00;2620953;54;20026;-63
2022/04/28 00:13:27;;;;;;;11.18;10.05;;;;;;;8.73;66.87;99759.72;2621319;54;20026;-65
2022/04/28 00:15:57;;;;;;;10.95;9.80;;;;;;;8.57;67.21;99762.25;2621753;54;20137;-64
2022/04/28 00:18:29;;;;;;;11.77;10.32;;;;;;;8.48;68.00;99763.22;2621010;54;20039;-65
2022/04/28 00:20:59;;;;;;;11.13;10.05;;;;;;;8.43;67.67;99768.94;2622008;54;20030;-65
2022/04/28 00:23:28;;;;;;;12.40;10.45;;;;;;;8.30;68.23;99765.88;2621767;54;20030;-64
2022/04/28 00:25:58;;;;;;;13.68;10.63;;;;;;;8.29;68.44;99764.22;2621690;54;20117;-63
2022/04/28 00:28:28;;;;;;;12.10;9.85;;;;;;;8.30;68.33;99768.50;2621360;54;20041;-63
2022/04/28 00:30:57;;;;;;;10.25;9.23;;;;;;;8.27;68.33;99766.19;2621681;54;20061;-64
2022/04/28 00:33:30;;;;;;;10.32;9.30;;;;;;;8.22;68.50;99763.19;2621949;54;20122;-64
2022/04/28 00:35:59;;;;;;;10.20;8.43;;;;;;;8.19;68.66;99765.13;2621122;54;20030;-64
2022/04/28 00:38:29;;;;;;;9.38;8.45;;;;;;;8.19;68.91;99751.97;2621575;54;20215;-64
2022/04/28 00:40:58;;;;;;;10.60;9.05;;;;;;;8.22;68.79;99764.00;2621158;47;20041;-63
2022/04/28 00:43:28;;;;;;;11.43;9.10;;;;;;;8.24;68.92;99754.13;2621849;47;20035;-64
2022/04/28 00:45:59;;;;;;;11.40;9.75;;;;;;;8.21;68.15;99758.91;2623150;54;20023;-64
2022/04/28 00:51:15;;;;;;;11.35;9.77;;;;;;;8.06;68.96;99766.53;2623939;54;20573;-64
2022/04/28 00:53:49;;;;;;;11.02;9.57;;;;;;;8.02;68.96;99762.53;2623820;54;20034;-63
2022/04/28 00:56:19;;;;;;;;;;;;;;;7.98;68.66;99766.47;2624311;54;20040;-63
2022/04/28 00:58:51;;;;;;;10.57;9.52;;;;;;;7.86;68.74;99769.31;2623416;47;19947;-64
2022/04/28 01:01:20;;;;;;;11.55;9.18;;;;;;;7.80;68.97;99767.31;2624338;39;20420;-64
2022/04/28 01:03:52;;;;;;;11.27;9.82;;;;;;;7.84;69.23;99768.66;2624193;54;20034;-63
2022/04/28 01:06:22;;;;;;;11.23;9.48;;;;;;;7.84;69.55;99762.56;2623526;47;20034;-63
2022/04/28 01:08:52;;;;;;;10.93;9.82;;;;;;;7.82;69.09;99770.59;2623683;54;20035;-62
2022/04/28 01:11:22;;;;;;;11.60;10.48;;;;;;;7.80;68.80;99767.31;2623302;47;20069;-63
2022/04/28 01:13:59;;;;;;;11.25;10.05;;;;;;;7.79;69.33;99763.00;2623475;47;20031;-63
2022/04/28 01:16:33;;;;;;;11.80;10.60;;;;;;;7.76;68.81;99771.22;2623416;54;20097;-64
2022/04/28 01:19:06;;;;;;;11.57;10.25;;;;;;;7.67;68.98;99765.06;2622764;54;20038;-62
2022/04/28 01:21:38;;;;;;;11.25;9.60;;;;;;;7.57;69.03;99763.47;2623602;54;20034;-64
2022/04/28 01:24:17;;;;;;;10.68;9.57;;;;;;;7.55;69.67;99771.50;2622629;47;20030;-62
2022/04/28 01:26:47;;;;;;;12.60;10.02;;;;;;;7.54;69.35;99774.28;2621973;54;20085;-62
2022/04/28 01:29:17;;;;;;;13.43;11.07;;;;;;;7.47;69.59;99768.81;2622773;54;20023;-62
2022/04/28 01:31:46;;;;;;;12.35;10.73;;;;;;;7.41;69.66;99772.00;2621874;47;20034;-62
2022/04/28 01:34:16;;;;;;;13.70;11.23;;;;;;;7.33;69.97;99769.28;2621991;39;20525;-62
2022/04/28 01:36:48;;;;;;;13.77;10.35;;;;;;;7.26;70.15;99768.22;2620362;47;20034;-64
2022/04/28 01:39:18;;;;;;;10.73;9.73;;;;;;;7.18;69.99;99768.94;2620894;54;20118;-62
2022/04/28 01:41:50;;;;;;;13.40;10.15;;;;;;;7.17;70.65;99777.81;2620685;54;20037;-64
2022/04/28 01:44:20;;;;;;;11.02;9.98;;;;;;;7.18;70.38;99776.84;2620973;54;20022;-63
2022/04/28 01:46:50;;;;;;;12.48;10.27;;;;;;;7.26;70.35;99781.38;2621241;54;20042;-67
2022/04/28 01:49:31;;;;;;;10.68;9.57;;;;;;;7.30;70.24;99773.03;2620748;47;20027;-62
2022/04/28 01:55:26;;;;;;;12.68;10.35;;;;;;;7.27;69.74;99780.41;2621205;54;20126;-64
2022/04/28 01:58:02;;;;;;;12.68;11.38;;;;;;;7.17;70.04;99777.81;2621548;47;20076;-65
2022/04/28 02:01:11;;;;;;;10.75;9.65;;;;;;;7.11;70.30;99774.00;2621641;54;20565;-63
2022/04/28 02:03:41;;;;;;;11.18;9.77;;;;;;;7.11;70.33;99778.44;2622360;51;20089;-63
2022/04/28 02:06:11;;;;;;;11.50;10.38;;;;;;;7.02;70.28;99781.91;2622041;54;20030;-69
2022/04/28 02:08:44;;;;;;;11.55;10.40;;;;;;;6.95;70.36;99782.50;2622325;47;20038;-64
2022/04/28 02:11:16;;;;;;;11.98;10.75;;;;;;;6.93;70.69;99783.63;2623556;54;20033;-62
2022/04/28 02:14:05;;;;;;;11.55;10.32;;;;;;;6.86;70.72;99786.00;2623131;54;20069;-63
2022/04/28 02:16:53;;;;;;;13.68;10.98;;;;;;;6.84;70.74;99792.38;2624152;54;20041;-64
2022/04/28 02:19:29;;;;;;;12.25;10.85;;;;;;;6.80;70.64;99788.38;2625751;46;20511;-63
2022/04/28 02:21:59;;;;;;;13.57;11.25;;;;;;;6.80;70.69;99789.19;2624814;50;20145;-64
2022/04/28 02:24:32;;;;;;;11.80;10.25;;;;;;;6.79;70.91;99789.34;2627255;39;20439;-64
2022/04/28 02:27:02;;;;;;;13.10;10.38;;;;;;;6.64;71.09;99800.31;2624903;47;20027;-63
2022/04/28 02:29:32;;;;;;;12.07;10.40;;;;;;;6.58;71.46;99792.19;2624384;46;20150;-63
2022/04/28 02:32:02;;;;;;;12.60;11.32;;;;;;;6.65;71.39;99786.22;2623618;47;20026;-65
2022/04/28 02:34:32;;;;;;;13.05;11.10;;;;;;;6.66;71.36;99801.03;2624038;54;20055;-64
2022/04/28 02:37:03;;;;;;;12.07;10.88;;;;;;;6.68;70.88;99793.81;2623218;54;20025;-63
2022/04/28 02:39:35;;;;;;;12.77;9.70;;;;;;;6.65;71.07;99796.75;2623501;47;20026;-62
2022/04/28 02:42:05;;;;;;;11.20;9.57;;;;;;;6.60;71.29;99801.56;2623467;54;20026;-62
2022/04/28 02:44:35;;;;;;;11.48;10.27;;;;;;;6.60;71.28;99806.00;2623885;54;20033;-62
2022/04/28 02:47:10;;;;;;;12.50;9.77;;;;;;;6.52;71.23;99804.09;2622995;54;20041;-62
2022/04/28 02:49:40;;;;;;;11.00;9.90;;;;;;;6.59;71.03;99807.81;2623300;54;20035;-62
2022/04/28 02:52:12;;;;;;;11.57;10.15;;;;;;;6.56;71.01;99802.00;2623490;54;20034;-62
2022/04/28 02:54:44;;;;;;;14.55;10.80;;;;;;;6.45;71.20;99801.22;2623538;54;20023;-62
2022/04/28 02:57:14;;;;;;;11.85;10.60;;;;;;;6.43;71.68;99807.56;2623031;54;20539;-63
2022/04/28 02:59:45;;;;;;;11.68;10.13;;;;;;;6.48;71.05;99804.50;2623517;54;20026;-62
2022/04/28 03:02:15;;;;;;;12.27;10.57;;;;;;;6.40;71.20;99811.28;2623591;54;20027;-62
2022/04/28 03:04:45;;;;;;;11.98;10.88;;;;;;;6.40;71.49;99805.22;2623685;39;20424;-62
2022/04/28 03:12:41;;;;;;;12.27;10.98;;;;;;;6.29;71.80;99814.09;2619842;54;20034;-62
2022/04/28 03:15:25;;;;;;;11.55;10.35;;;;;;;6.28;71.85;99816.84;2619473;47;20082;-62
2022/04/28 03:17:54;;;;;;;12.05;9.90;;;;;;;6.32;71.94;99815.59;2619282;54;20034;-62
2022/04/28 03:20:24;;;;;;;11.40;9.95;;;;;;;6.32;71.61;99812.97;2619392;47;20030;-62
2022/04/28 03:22:54;;;;;;;11.18;10.00;;;;;;;6.27;71.28;99812.56;2619617;54;20026;-62
2022/04/28 03:25:27;;;;;;;12.23;10.35;;;;;;;6.16;71.60;99811.75;2619493;47;20113;-62
2022/04/28 03:27:57;;;;;;;11.68;10.38;;;;;;;6.12;71.53;99820.88;2621341;54;20263;-62
2022/04/28 03:30:27;;;;;;;11.43;10.32;;;;;;;6.12;72.07;99820.03;2622899;54;20061;-65
2022/04/28 03:33:18;;;;;;;10.77;9.75;;;;;;;6.14;71.98;99821.56;2622907;46;20099;-62
2022/04/28 03:35:48;;;;;;;10.52;9.50;;;;;;;6.19;71.61;99821.16;2621743;54;20587;-62
2022/04/28 03:38:18;;;;;;;11.77;9.20;;;;;;;6.17;71.67;99821.28;2622912;47;20022;-62
2022/04/28 03:40:51;;;;;;;12.48;10.00;;;;;;;6.22;71.72;99820.88;2624081;31;20531;-63
2022/04/28 03:43:21;;;;;;;11.18;10.02;;;;;;;6.17;71.12;99823.91;2623454;47;20038;-62
2022/04/28 03:45:58;;;;;;;10.27;9.25;;;;;;;6.04;71.06;99826.00;2623695;47;20030;-64
2022/04/28 03:48:27;;;;;;;12.18;10.40;;;;;;;5.99;71.62;99830.00;2623416;54;20034;-63
2022/04/28 03:50:57;;;;;;;11.60;10.43;;;;;;;5.90;71.83;99829.00;2623859;54;20034;-64
2022/04/28 03:53:27;;;;;;;10.63;9.63;;;;;;;5.87;71.85;99831.88;2624008;54;20053;-64
2022/04/28 03:55:59;;;;;;;10.30;9.20;;;;;;;5.87;71.81;99840.59;2623813;54;20063;-64
2022/04/28 03:58:28;;;;;;;11.70;9.82;;;;;;;5.92;72.33;99841.06;2622433;54;20033;-64
2022/04/28 04:00:59;;;;;;;14.60;9.98;;;;;;;5.87;71.43;99843.22;2623314;54;20042;-64
2022/04/28 04:03:44;;;;;;;11.52;10.43;;;;;;;5.80;71.84;99836.88;2623243;39;20453;-64
2022/04/28 04:06:14;;;;;;;12.77;10.10;;;;;;;5.76;72.00;99837.28;2622589;47;20035;-63
2022/04/28 04:08:52;;;;;;;10.05;9.00;;;;;;;5.83;72.22;99846.25;2621858;39;20430;-64
2022/04/28 04:11:24;;;;;;;12.90;9.15;;;;;;;5.90;71.66;99847.38;2620279;47;20045;-62
2022/04/28 04:13:54;;;;;;;11.98;8.63;;;;;;;5.93;71.46;99852.38;2620623;54;20034;-64
2022/04/28 04:16:24;;;;;;;10.25;7.97;;;;;;;5.89;71.67;99845.72;2620358;47;20035;-62
2022/04/28 04:19:06;;;;;;;9.80;7.15;;;;;;;5.95;72.01;99846.00;2616885;54;20047;-66
2022/04/28 04:21:42;;;;;;;9.57;8.27;;;;;;;6.04;71.86;99848.78;2617648;39;20414;-66
2022/04/28 04:24:12;;;;;;;9.07;8.18;;;;;;;6.10;71.67;99848.22;2617614;47;20060;-66
2022/04/28 04:26:45;;;;;;;10.65;8.00;;;;;;;6.17;71.29;99857.22;2617235;47;20114;-66
2022/04/28 04:29:22;;;;;;;8.73;7.93;;;;;;;6.19;71.32;99852.66;2618537;39;20407;-66
2022/04/28 04:32:18;;;;;;;8.85;7.93;;;;;;;6.14;70.69;99868.00;2624139;47;20569;-66
2022/04/28 04:34:48;;;;;;;10.00;8.25;;;;;;;6.14;70.65;99866.19;2618339;54;20042;-66
2022/04/28 04:37:22;;;;;;;9.80;8.10;;;;;;;6.16;70.61;99869.53;2617052;47;20026;-66
2022/04/28 04:39:54;;;;;;;12.57;9.50;;;;;;;6.17;70.27;99865.94;2617581;47;20057;-66
2022/04/28 04:42:26;;;;;;;9.35;8.43;;;;;;;6.07;70.06;99869.50;2617623;47;20072;-66
2022/04/28 04:44:56;;;;;;;9.23;8.27;;;;;;;5.97;70.52;99877.38;2617881;47;20557;-65
2022/04/28 04:47:30;;;;;;;10.80;8.25;;;;;;;5.99;70.47;99879.88;2618884;54;20030;-65
2022/04/28 04:50:11;;;;;;;9.48;7.82;;;;;;;5.99;70.83;99878.06;2619005;46;20089;-65
2022/04/28 04:53:00;;;;;;;9.15;8.15;;;;;;;6.10;70.77;99882.38;2619471;47;20026;-66
2022/04/28 04:55:30;;;;;;;10.32;8.55;;;;;;;6.14;70.11;99884.56;2620392;54;20118;-65
2022/04/28 04:58:09;;;;;;;10.40;8.85;;;;;;;6.20;70.24;99891.91;2619345;54;20037;-66
2022/04/28 05:00:38;;;;;;;10.18;9.10;;;;;;;6.23;69.62;99892.59;2621094;51;20146;-65
2022/04/28 05:03:26;;;;;;;11.63;8.75;;;;;;;6.14;69.85;99894.25;2622186;54;20053;-65
2022/04/28 05:06:27;;;;;;;16.27;12.75;;;;;;;6.24;69.44;99902.94;2622473;39;20418;-65
2022/04/28 05:09:23;;;;;;;20.23;12.38;;;;;;;6.33;70.20;99894.25;2622201;39;20407;-65
2022/04/28 05:11:53;;;;;;;10.20;8.75;;;;;;;6.47;69.79;99900.06;2620724;31;20545;-66
2022/04/28 05:14:45;;;;;;;9.95;8.95;;;;;;;6.52;69.59;99903.09;2621576;54;20039;-66
2022/04/28 05:17:16;;;;;;;10.02;9.00;;;;;;;6.63;69.51;99910.81;2619179;54;20582;-65
2022/04/28 05:20:10;;;;;;;10.48;8.90;;;;;;;6.75;69.03;99908.88;2618205;54;20037;-66
2022/04/28 05:22:58;;;;;;;10.73;8.60;;;;;;;6.81;69.16;99910.91;2620114;54;20114;-66
2022/04/28 05:25:34;;;;;;;9.13;8.23;;;;;;;6.88;69.29;99915.47;2619582;54;20042;-66
2022/04/28 05:28:23;;;;;;;9.85;8.68;;;;;;;6.96;68.40;99920.03;2617619;54;20041;-66
2022/04/28 05:31:18;;;;;;;10.35;9.27;;;;;;;7.09;68.98;99911.81;2617631;54;20057;-66
2022/04/28 05:34:12;;;;;;;9.98;8.90;;;;;;;7.18;68.64;99916.22;2617974;47;20041;-66
2022/04/28 05:36:47;;;;;;;11.75;9.40;;;;;;;7.29;68.47;99918.69;2617793;54;20081;-66
2022/04/28 05:39:22;;;;;;;10.52;9.43;;;;;;;7.27;68.15;99919.81;2617475;54;20538;-66
2022/04/28 05:41:52;;;;;;;10.30;9.02;;;;;;;7.39;68.24;99926.56;2618070;54;20030;-66
2022/04/28 05:47:08;;;;;;;11.52;9.43;;;;;;;7.72;67.78;99924.31;2617145;47;20026;-66
2022/04/28 05:49:39;;;;;;;19.13;10.87;;;;;;;7.79;66.92;99922.75;2617469;47;20142;-66
2022/04/28 05:52:10;;;;;;;14.00;10.98;;;;;;;7.74;66.54;99932.88;2617489;54;20307;-66
2022/04/28 05:54:40;;;;;;;11.30;9.57;;;;;;;7.72;66.75;99927.78;2617181;47;20031;-66
2022/04/28 05:57:11;;;;;;;16.15;11.05;;;;;;;7.76;66.80;99931.78;2616864;54;20081;-66
2022/04/28 05:59:42;;;;;;;38.95;18.60;;;;;;;7.85;66.85;99930.06;2617576;46;20050;-66
2022/04/28 06:02:33;;;;;;;23.13;12.30;;;;;;;7.96;66.87;99921.97;2617652;39;20117;-66
2022/04/28 06:05:05;;;;;;;13.63;11.13;;;;;;;8.05;66.36;99925.50;2617316;54;20031;-65
2022/04/28 06:07:35;;;;;;;13.93;11.50;;;;;;;8.08;66.18;99931.31;2616721;47;20531;-65
2022/04/28 06:10:05;;;;;;;17.55;10.63;;;;;;;8.22;66.07;99927.31;2617376;39;20413;-65
2022/04/28 06:12:35;;;;;;;13.75;10.65;;;;;;;8.34;66.14;99935.84;2618208;39;20402;-65
2022/04/28 06:15:27;;;;;;;18.60;10.98;;;;;;;8.48;65.77;99926.59;2617894;47;20061;-65
2022/04/28 06:18:30;;;;;;;11.98;10.35;;;;;;;8.58;65.30;99930.81;2616540;54;20033;-65
2022/04/28 06:21:11;;;;;;;16.63;13.88;;;;;;;8.71;64.78;99932.22;2617207;54;20031;-65
2022/04/28 06:23:45;;;;;;;;;;;;;;;8.80;64.73;99940.03;2617137;54;20024;-66
2022/04/28 06:26:16;;;;;;;16.05;12.57;;;;;;;8.95;65.02;99939.50;2616903;54;19951;-66
2022/04/28 06:28:46;;;;;;;15.25;11.80;;;;;;;9.13;64.80;99943.72;2616683;54;20034;-66
2022/04/28 06:31:15;;;;;;;13.40;11.52;;;;;;;9.27;64.40;99944.16;2617273;54;20154;-67
2022/04/28 06:34:11;;;;;;;19.63;12.85;;;;;;;9.36;64.17;99946.69;2616691;54;20034;-64
2022/04/28 06:36:43;;;;;;;11.13;9.75;;;;;;;9.51;64.06;99943.44;2616869;54;20534;-66
2022/04/28 06:39:14;;;;;;;14.38;11.98;;;;;;;9.63;64.09;99950.09;2616782;47;20027;-67
2022/04/28 06:41:47;;;;;;;15.93;11.30;;;;;;;9.73;63.34;99953.44;2616887;54;20042;-66
2022/04/28 06:44:22;;;;;;;15.35;12.38;;;;;;;9.80;62.90;99954.47;2617741;47;20030;-65
2022/04/28 06:46:55;;;;;;;15.07;11.57;;;;;;;9.83;62.83;99955.94;2618215;46;20045;-67
2022/04/28 06:50:07;;;;;;;16.00;12.55;;;;;;;10.00;62.78;99951.53;2617439;54;20030;-68
2022/04/28 06:53:14;;;;;;;13.02;11.52;;;;;;;10.18;62.99;99952.25;2617920;54;20037;-67
2022/04/28 06:55:49;;;;;;;17.88;12.25;;;;;;;10.37;62.70;99952.00;2617512;46;20034;-66
2022/04/28 06:58:21;;;;;;;21.17;13.15;;;;;;;10.51;62.46;99947.88;2617413;54;20034;-67
2022/04/28 07:00:52;;;;;;;15.13;11.95;;;;;;;10.61;62.36;99953.00;2618163;54;20046;-65
2022/04/28 07:03:23;;;;;;;13.07;11.35;;;;;;;10.74;61.60;99953.34;2618596;47;20037;-67
2022/04/28 07:06:00;;;;;;;16.05;12.25;;;;;;;10.79;61.67;99952.84;2617911;54;20558;-66
2022/04/28 07:08:30;;;;;;;14.60;12.10;;;;;;;10.86;61.88;99951.22;2617716;54;20030;-67
2022/04/28 07:11:01;;;;;;;23.88;15.98;;;;;;;11.02;61.84;99950.34;2618041;47;20037;-66
2022/04/28 07:13:34;;;;;;;19.27;12.48;;;;;;;11.17;61.17;99956.63;2622432;54;20556;-67
2022/04/28 07:16:10;;;;;;;17.02;12.90;;;;;;;11.30;60.91;99951.63;2622282;54;20037;-66
2022/04/28 07:18:59;;;;;;;18.08;11.60;;;;;;;11.39;61.27;99958.56;2618471;54;20150;-66
2022/04/28 07:21:33;;;;;;;16.23;11.63;;;;;;;11.55;60.75;99947.09;2617848;54;20034;-67
2022/04/28 07:24:04;;;;;;;13.27;11.82;;;;;;;11.66;59.77;99952.00;2618302;54;20039;-66
2022/04/28 07:26:34;;;;;;;22.35;15.95;;;;;;;11.74;60.24;99952.97;2617624;54;20042;-66
2022/04/28 07:29:05;;;;;;;20.10;16.20;;;;;;;11.90;59.85;99947.63;2617250;54;20042;-66
2022/04/28 07:31:57;;;;;;;12.63;10.73;;;;;;;12.02;59.60;99954.19;2618218;47;20085;-66
2022/04/28 07:34:46;;;;;;;14.20;11.93;;;;;;;12.10;59.22;99954.16;2618232;54;20193;-66
2022/04/28 07:37:41;;;;;;;17.42;13.15;;;;;;;12.31;58.80;99950.88;2617020;47;20057;-65
2022/04/28 07:40:51;;;;;;;14.20;11.15;;;;;;;12.47;58.27;99957.91;2616778;54;20027;-65
2022/04/28 07:43:25;;;;;;;13.05;10.43;;;;;;;12.52;58.77;99952.06;2616441;54;20051;-66
2022/04/28 07:45:56;;;;;;;13.13;11.07;;;;;;;12.75;58.40;99947.56;2616919;54;20045;-66
2022/04/28 07:48:27;;;;;;;16.17;10.45;;;;;;;12.99;57.92;99951.84;2616971;54;20033;-66
2022/04/28 07:50:58;;;;;;;16.67;11.85;;;;;;;13.12;56.52;99948.56;2617642;54;20031;-67
2022/04/28 07:53:34;;;;;;;13.15;10.43;;;;;;;13.24;56.53;99956.94;2617549;54;20039;-65
2022/04/28 07:56:14;;;;;;;13.85;10.02;;;;;;;13.37;55.20;99949.16;2617048;54;20035;-65
2022/04/28 07:58:48;;;;;;;11.07;9.35;;;;;;;13.41;55.62;99949.63;2617158;54;20027;-65
2022/04/28 08:01:47;;;;;;;10.32;8.57;;;;;;;13.48;55.73;99954.03;2617498;54;20061;-66
2022/04/28 08:04:17;;;;;;;10.07;8.20;;;;;;;13.70;54.69;99949.63;2617654;39;20461;-65
2022/04/28 08:06:56;;;;;;;12.85;7.75;;;;;;;13.90;53.30;99955.19;2616897;54;20049;-65
2022/04/28 08:09:30;;;;;;;9.65;8.60;;;;;;;13.94;52.83;99951.16;2617246;46;20026;-66
2022/04/28 08:12:08;;;;;;;7.60;6.80;;;;;;;14.05;51.84;99949.84;2617320;47;20031;-66
2022/04/28 08:14:51;;;;;;;10.40;6.63;;;;;;;14.21;51.67;99954.94;2617184;54;20027;-65
2022/04/28 08:17:21;;;;;;;5.65;4.85;;;;;;;14.21;50.74;99952.28;2617846;39;20438;-65
2022/04/28 08:19:51;;;;;;;6.72;5.38;;;;;;;14.35;50.08;99955.91;2617913;54;20126;-65
2022/04/28 08:22:26;;;;;;;7.05;5.40;;;;;;;14.49;49.90;99948.88;2620543;47;20034;-66
2022/04/28 08:24:59;;;;;;;6.30;5.10;;;;;;;14.57;48.83;99960.25;2620474;54;20081;-66
2022/04/28 08:27:28;;;;;;;6.72;4.88;;;;;;;14.76;48.32;99956.13;2620385;54;20031;-66
2022/04/28 08:29:58;;;;;;;7.15;5.32;;;;;;;15.01;46.38;99953.84;2620646;54;20039;-66
2022/04/28 08:32:28;;;;;;;5.32;4.57;;;;;;;15.20;46.31;99948.88;2620142;54;20034;-66
2022/04/28 08:34:57;;;;;;;4.63;4.05;;;;;;;15.30;45.56;99944.84;2621417;39;20486;-66
2022/04/28 08:37:27;;;;;;;5.68;4.55;;;;;;;15.44;44.36;99951.09;2619350;54;20034;-66
2022/04/28 08:40:00;;;;;;;5.22;4.00;;;;;;;15.57;44.15;99956.47;2619301;47;20030;-66
2022/04/28 08:42:29;;;;;;;5.07;3.70;;;;;;;15.72;42.70;99955.56;2619232;54;20077;-66
2022/04/28 08:45:07;;;;;;;4.50;4.07;;;;;;;15.64;42.25;99956.53;2619066;47;20573;-66
2022/04/28 08:47:37;;;;;;;5.07;4.57;;;;;;;15.64;42.52;99959.19;2619114;54;20052;-66
2022/04/28 08:50:25;;;;;;;4.70;3.83;;;;;;;15.76;41.67;99956.81;2618548;54;20057;-66
2022/04/28 08:53:15;;;;;;;5.03;4.07;;;;;;;15.83;40.98;99958.47;2617459;54;20026;-66
2022/04/28 08:55:48;;;;;;;8.52;5.45;;;;;;;15.95;40.35;99960.59;2617484;47;20027;-67
2022/04/28 08:58:18;;;;;;;4.32;3.92;;;;;;;16.07;40.14;99961.66;2616929;54;20030;-66
2022/04/28 09:00:51;;;;;;;5.83;3.97;;;;;;;16.10;39.74;99955.94;2617811;39;20426;-66
2022/04/28 09:03:26;;;;;;;5.32;4.18;;;;;;;16.13;40.44;99952.03;2618372;54;20267;-66
2022/04/28 09:06:34;;;;;;;3.75;3.35;;;;;;;16.20;40.92;99953.69;2616843;54;20047;-67
2022/04/28 09:09:36;;;;;;;7.10;4.45;;;;;;;16.39;38.61;99953.94;2618293;54;20118;-67
2022/04/28 09:12:32;;;;;;;5.70;4.10;;;;;;;16.41;37.67;99960.75;2618569;54;20027;-67
2022/04/28 09:15:31;;;;;;;4.03;3.63;;;;;;;16.39;39.04;99946.75;2619313;47;20045;-65
2022/04/28 09:18:17;;;;;;;4.20;3.70;;;;;;;16.54;38.59;99944.75;2619112;39;20404;-66
2022/04/28 09:20:48;;;;;;;5.55;4.07;;;;;;;16.70;36.59;99945.38;2618549;54;20027;-66
2022/04/28 09:23:20;;;;;;;5.22;4.40;;;;;;;16.69;37.27;99941.03;2619896;54;20061;-66
2022/04/28 09:25:56;;;;;;;5.78;5.03;;;;;;;16.69;37.37;99941.03;2619660;46;20537;-66
2022/04/28 09:28:29;;;;;;;7.30;3.63;;;;;;;16.67;36.96;99940.44;2619015;47;20031;-66
2022/04/28 09:31:00;;;;;;;4.45;4.03;;;;;;;16.91;35.35;99947.88;2619215;54;20034;-66
2022/04/28 09:33:53;;;;;;;5.40;4.20;;;;;;;17.09;34.03;99939.22;2618522;54;20041;-66
2022/04/28 09:36:47;;;;;;;3.88;3.55;;;;;;;17.07;34.57;99935.94;2618186;54;20042;-66
2022/04/28 09:44:58;;;;;;;8.05;6.00;;;;;;;17.28;33.74;99932.22;2617048;54;20033;-66
2022/04/28 09:47:29;;;;;;;4.97;3.10;;;;;;;17.39;31.69;99936.09;2620758;54;20596;-66
2022/04/28 09:50:00;;;;;;;6.13;3.70;;;;;;;17.45;31.56;99928.06;2623308;54;20034;-66
2022/04/28 09:52:45;;;;;;;4.45;3.47;;;;;;;17.41;32.00;99918.00;2621599;54;20038;-66
2022/04/28 09:55:18;;;;;;;5.55;3.30;;;;;;;17.51;31.41;99932.56;2617952;54;20129;-65
2022/04/28 09:58:09;;;;;;;6.15;2.88;;;;;;;17.52;30.87;99928.06;2617338;54;20065;-65
2022/04/28 10:00:41;;;;;;;4.45;2.60;;;;;;;17.60;31.05;99930.50;2617095;54;20515;-67
2022/04/28 10:03:12;;;;;;;3.15;2.65;;;;;;;17.67;31.36;99930.44;2617329;39;20415;-66
2022/04/28 10:05:45;;;;;;;4.20;3.28;;;;;;;17.77;31.38;99931.69;2617033;54;20546;-67
2022/04/28 10:08:35;;;;;;;5.22;3.22;;;;;;;17.78;30.70;99921.81;2617318;54;20038;-67
2022/04/28 10:11:08;;;;;;;4.57;2.92;;;;;;;17.86;31.07;99921.56;2616949;54;20031;-67
2022/04/28 10:13:39;;;;;;;3.75;3.08;;;;;;;18.01;31.02;99932.81;2617695;54;20026;-67
2022/04/28 10:16:14;;;;;;;4.38;3.00;;;;;;;18.07;29.37;99929.28;2616915;54;20023;-66
2022/04/28 10:18:51;;;;;;;2.97;2.78;;;;;;;17.98;29.52;99927.88;2617366;47;20065;-64
2022/04/28 10:21:39;;;;;;;3.17;2.88;;;;;;;17.99;29.25;99929.53;2619645;51;20030;-64
2022/04/28 10:33:08;;;;;;;3.15;2.80;;;;;;;18.16;27.97;99931.69;2620913;54;20054;-65
2022/04/28 10:35:49;;;;;;;5.55;2.70;;;;;;;18.30;28.06;99925.25;2620696;47;20019;-65
2022/04/28 10:38:22;;;;;;;6.97;5.15;;;;;;;18.41;27.47;99929.06;2620782;54;20034;-64
2022/04/28 10:41:01;;;;;;;4.57;4.10;;;;;;;18.33;28.01;99924.81;2619821;54;20033;-65
2022/04/28 10:43:39;;;;;;;7.05;5.13;;;;;;;18.30;27.84;99925.25;2619930;54;20034;-62
2022/04/28 10:46:34;;;;;;;3.60;3.30;;;;;;;18.49;27.07;99920.78;2619925;54;20598;-66
2022/04/28 10:49:06;;;;;;;;;;;;;;;18.51;26.76;99918.72;2619124;47;20030;-63
2022/04/28 10:51:36;;;;;;;4.85;2.80;;;;;;;18.43;26.33;99918.97;2619928;54;19947;-63
2022/04/28 10:54:09;;;;;;;3.47;3.08;;;;;;;18.51;27.17;99924.06;2620269;54;20049;-64
2022/04/28 10:56:56;;;;;;;3.30;3.00;;;;;;;18.53;26.84;99927.34;2619489;54;20027;-65
2022/04/28 10:59:37;;;;;;;4.47;2.63;;;;;;;18.49;27.17;99910.91;2621088;54;20102;-65
2022/04/28 11:02:51;;;;;;;3.67;2.90;;;;;;;18.60;27.50;99914.72;2620789;47;20022;-63
2022/04/28 11:05:40;;;;;;;3.20;2.58;;;;;;;18.78;27.26;99917.53;2619614;39;20430;-64
2022/04/28 11:08:27;;;;;;;3.20;2.70;;;;;;;18.87;27.50;99917.25;2619695;54;20037;-64
2022/04/28 11:11:12;;;;;;;2.90;2.70;;;;;;;19.03;26.55;99916.69;2619889;54;20042;-64
2022/04/28 11:13:49;;;;;;;6.15;3.15;;;;;;;18.94;26.36;99929.53;2619365;47;20019;-63
2022/04/28 11:16:19;;;;;;;8.15;2.75;;;;;;;18.80;26.86;99922.66;2619892;54;20077;-64
2022/04/28 11:18:49;;;;;;;4.13;2.83;;;;;;;18.75;26.73;99915.28;2619136;39;20415;-64
2022/04/28 11:21:22;;;;;;;3.13;2.92;;;;;;;18.54;26.90;99905.72;2619268;54;20057;-65
2022/04/28 11:23:54;;;;;;;3.83;3.03;;;;;;;18.66;27.25;99908.53;2619046;54;20034;-64
2022/04/28 11:26:31;;;;;;;4.22;2.90;;;;;;;18.93;26.35;99911.00;2618868;54;20034;-64
2022/04/28 11:29:22;;;;;;;3.03;2.40;;;;;;;19.07;25.99;99906.34;2619273;47;20137;-63
2022/04/28 11:31:53;;;;;;;4.90;2.90;;;;;;;19.16;26.24;99896.97;2619355;54;20039;-62
2022/04/28 11:34:23;;;;;;;3.75;2.80;;;;;;;19.29;26.32;99902.19;2619577;54;20044;-64
2022/04/28 11:36:55;;;;;;;4.63;2.53;;;;;;;19.36;26.35;99897.56;2618907;46;20045;-64
2022/04/28 11:39:25;;;;;;;3.20;2.90;;;;;;;19.36;26.57;99889.53;2620140;54;20049;-65
2022/04/28 11:41:59;;;;;;;3.70;2.88;;;;;;;19.43;26.40;99897.47;2619496;54;20038;-64
2022/04/28 11:44:28;;;;;;;;;;;;;;;19.53;26.60;99900.47;2620472;54;20043;-65
2022/04/28 11:46:59;;;;;;;5.53;3.50;;;;;;;19.59;26.35;99906.78;2619668;54;20034;-64
2022/04/28 11:49:38;;;;;;;5.53;3.25;;;;;;;19.64;26.04;99904.31;2619691;54;20031;-64
2022/04/28 11:52:27;;;;;;;5.13;3.90;;;;;;;19.70;26.31;99890.81;2619218;54;20030;-65
2022/04/28 11:55:00;;;;;;;4.40;3.30;;;;;;;19.68;26.57;99894.78;2620003;54;20030;-64
2022/04/28 11:57:30;;;;;;;3.47;3.05;;;;;;;19.68;25.94;99895.59;2619247;54;20122;-64
2022/04/28 12:00:01;;;;;;;3.20;2.47;;;;;;;19.61;26.19;99886.78;2619088;39;20418;-62
2022/04/28 12:02:41;;;;;;;6.10;3.05;;;;;;;19.52;27.23;99891.63;2618632;54;20125;-64
2022/04/28 12:05:19;;;;;;;4.43;2.80;;;;;;;19.60;26.54;99878.97;2618619;54;20022;-63
2022/04/28 12:07:54;;;;;;;6.55;3.47;;;;;;;19.65;26.72;99887.97;2618093;54;20038;-65
2022/04/28 12:15:52;;;;;;;5.35;3.97;;;;;;;19.91;26.83;99883.31;2618577;54;20053;-63
2022/04/28 12:21:21;;;;;;;3.65;3.35;;;;;;;19.70;27.09;99877.38;2619759;54;20085;-63
2022/04/28 12:23:55;;;;;;;4.68;3.70;;;;;;;19.82;27.41;99871.25;2619280;39;20426;-64
2022/04/28 12:26:26;;;;;;;5.38;4.15;;;;;;;19.94;27.63;99866.75;2620299;54;20038;-64
2022/04/28 12:28:56;;;;;;;6.88;5.32;;;;;;;20.09;28.31;99877.09;2619142;54;20027;-64
2022/04/28 12:31:29;;;;;;;6.88;5.07;;;;;;;20.16;28.11;99875.94;2619785;54;20037;-63
2022/04/28 12:34:19;;;;;;;4.53;3.83;;;;;;;20.18;28.45;99878.41;2619510;54;20026;-63
2022/04/28 12:36:53;;;;;;;5.82;5.20;;;;;;;20.32;27.85;99871.78;2620037;39;20097;-64
2022/04/28 12:39:31;;;;;;;5.97;4.53;;;;;;;20.44;27.75;99869.94;2619083;47;20049;-63
2022/04/28 12:42:01;;;;;;;;;;;;;;;20.47;27.99;99874.84;2619516;54;20038;-64
2022/04/28 12:44:31;;;;;;;8.80;5.43;;;;;;;20.56;28.10;99867.28;2619701;39;20353;-65
2022/04/28 12:47:09;;;;;;;6.22;5.15;;;;;;;20.55;27.80;99862.97;2619127;54;20037;-64
2022/04/28 12:49:47;;;;;;;7.18;5.05;;;;;;;20.49;28.53;99870.09;2619691;39;20446;-64